Maryland AWOS List, Phone Numbers

USA |  
| Search AWOS

Rocky Mountain States: Montana | Wyoming | Colorado | New Mexico

Complete weather reports: Maryland

Legend: KFNL = METAR available Follow your local AWOS on AV Mobile = METAR available on AV Mobile
Station Maryland Location Frequency Phone
KAPGFAA ID APG, KAPG 251750Z 29010KT 7SM BKN050 14/03 A3025 Follow KAPG on AV Mobile Phillips Army Air Field / Aberdeen
K61WICAO ID K61W Annapolis Coast Guard Station
KNAKICAO ID KNAK, KNAK 260254Z AUTO 00000KT 10SM CLR 09/05 A3040 RMK AO2 SLP295 T00940050 51018 Follow KNAK on AV Mobile ANNAPOLIS US NAVAL ACADEMY
KLWXICAO ID KLWX Baltimore / DC Nexrad
KDMHICAO ID KDMH, KDMH 260254Z AUTO 10/M01 A3040 RMK AO1 SLP295 T01001011 51019 Follow KDMH on AV Mobile BALTIMORE DOWNTOWN
KMTNFAA ID MTN, AWOS-3PT, KMTN 260145Z 00000KT 10SM SKC 06/02 A3040 Follow KMTN on AV Mobile Baltimore / Martin 124.925 410-682-8848
4MDFAA ID 4MD, Belfort PIER 7
KCGEFAA ID CGE, AWOS-3, KCGE 260332Z AUTO 00000KT 10SM CLR 04/02 A3039 RMK AO1 Follow KCGE on AV Mobile CAMBRIDGE 120.675 410-228-7559
KADWFAA ID ADW, KADW 260258Z AUTO 00000KT 10SM CLR 05/01 A3039 RMK AO2 SLP299 T00480014 52016 Follow KADW on AV Mobile Camp Springs / Andrews Air Force Base
KCGSFAA ID CGS, AWOS-3, KCGS 260336Z AUTO 00000KT 10SM CLR 04/02 A3040 RMK AO1 Follow KCGS on AV Mobile COLLEGE PARK 121.225 301-864-5497
K66WICAO ID K66W Cove Point Coast Guard Light Station
KCBEFAA ID CBE, AWOS-3, KCBE 260336Z AUTO 05004KT 10SM CLR 04/02 A3045 Follow KCBE on AV Mobile Cumberland, Greater Cumberland Regional Airport 128.625 304-738-0451
KESNFAA ID ESN, AWOS-3, KESN 252355Z 04003KT 10SM SKC 11/01 A3038 Follow KESN on AV Mobile Easton / Newman Field 124.475 410-822-2817
KFMEFAA ID FME, AWOS-3, KFME 260336Z AUTO 00000KT 10SM CLR 02/01 A3043 RMK AO1 Follow KFME on AV Mobile Fort Meade / Tipton 123.925
KFDKFAA ID FDK, AWOS-3, KFDK 252350Z 00000KT 10SM SKC 08/02 A3038 Follow KFDK on AV Mobile Frederick, Frederick Municipal Airport 124.875 301-600-1457
KGAIFAA ID GAI, AWOS-3, KGAI 260335Z AUTO 00000KT 10SM CLR 03/M01 A3044 RMK AO1 Follow KGAI on AV Mobile GAITHERSBURG 128.275 301-977-2971
KHGRFAA ID HGR, ASOS, KHGR 260253Z AUTO VRB03KT 10SM CLR 06/M02 A3039 RMK AO2 SLP304 T00611022 51014 Follow KHGR on AV Mobile HAGERSTOWN REGIONAL AIRPORT 126.375 301-745-3497
K2W6FAA ID 2W6, AWOS-3, K2W6 260336Z AUTO 00000KT 10SM CLR 06/02 A3041 RMK AO1 Follow K2W6 on AV Mobile LEONARDTOWN 119.575 301-373-6514
K2G4FAA ID 2G4, AWOS-3, K2G4 260335Z AUTO 00000KT 10SM 01/00 A3037 RMK AO1 Follow K2G4 on AV Mobile OAKLAND 120.125 301-746-8443
KW30ICAO ID KW30 Ocean City
KN80ICAO ID KN80 Ocean City, Ocean City Municipal Airport
KOXBFAA ID OXB, ASOS, KOXB 260253Z AUTO 35004KT 10SM CLR 07/01 A3038 RMK AO2 SLP287 T00670011 51018 Follow KOXB on AV Mobile OCEAN CITY MUNICIPAL AIRPORT 119.025 410-213-1530
KNHKFAA ID NHK, KNHK 260252Z 07007KT 10SM SCT250 11/02 A3039 RMK AO2 SLP289 T01060017 51019 Follow KNHK on AV Mobile NAS PATUXENT RIVER MD
KSBYFAA ID SBY, ASOS, KSBY 260254Z AUTO 00000KT 10SM CLR 06/03 A3038 Follow KSBY on AV Mobile SALISBURY-WICOMICO CTY REG 118.325 410-341-0868
KNUIFAA ID NUI, KNUI 260253Z AUTO 05004KT 10SM CLR 09/03 A3038 RMK AO2 SLP287 T00940033 51019 Follow KNUI on AV Mobile KNUI WEBSTER FIELD ANNEX
KW29FAA ID W29, AWOS-3, KW29 260335Z AUTO 10SM CLR 11/M01 A3040 RMK AO2 Follow KW29 on AV Mobile STEVENSVILLE 120.575 410-643-8795
K67WICAO ID K67W Stillpond Coast Guard Station
K65WICAO ID K65W Thomas Point Coast Guard Station
KDMWFAA ID DMW, AWOS-3, KDMW 260335Z AUTO 00000KT 10SM SCT090 04/M01 A3039 RMK AO2 Follow KDMW on AV Mobile WESTMINSTER 121.25 410-876-1281

Click on the AV Mobile icon AV Mobile icon by any station to follow that AWOS feed on Mobile.

Leaders in ADS-B Avemco Insurance Company